createdAt,value
2017-12-23T00:00:14.806Z,1032.80
2017-12-23T00:01:42.004Z,1032.78
2017-12-23T00:03:09.178Z,1032.75
2017-12-23T00:04:37.139Z,1032.73
2017-12-23T00:06:03.428Z,1032.72
2017-12-23T00:07:30.735Z,1032.74
2017-12-23T00:08:58.084Z,1032.72
2017-12-23T00:10:25.278Z,1032.71
2017-12-23T00:11:52.378Z,1032.70
2017-12-23T00:13:19.690Z,1032.68
2017-12-23T00:14:47.073Z,1032.61
2017-12-23T00:16:14.183Z,1032.55
2017-12-23T00:17:41.486Z,1032.55
2017-12-23T00:19:08.639Z,1032.51
2017-12-23T00:20:35.884Z,1032.43
2017-12-23T00:22:03.181Z,1032.39
2017-12-23T00:23:30.391Z,1032.39
2017-12-23T00:24:57.738Z,1032.34
2017-12-23T00:26:24.858Z,1032.30
2017-12-23T00:27:51.907Z,1032.32
2017-12-23T00:29:19.182Z,1032.35
2017-12-23T00:30:46.381Z,1032.31
2017-12-23T00:32:13.365Z,1032.34
2017-12-23T00:33:40.620Z,1032.30
2017-12-23T00:35:07.876Z,1032.28
2017-12-23T00:36:35.132Z,1032.23
2017-12-23T00:38:02.184Z,1032.16
2017-12-23T00:39:29.486Z,1032.17
2017-12-23T00:40:56.824Z,1032.19
2017-12-23T00:42:24.145Z,1032.20
2017-12-23T00:43:51.389Z,1032.14
2017-12-23T00:45:18.495Z,1032.05
2017-12-23T00:46:45.847Z,1031.98
2017-12-23T00:48:13.036Z,1032.01
2017-12-23T00:49:40.199Z,1032.07
2017-12-23T00:51:07.422Z,1032.14
2017-12-23T00:52:34.749Z,1032.10
2017-12-23T00:54:01.955Z,1032.08
2017-12-23T00:55:29.284Z,1032.03
2017-12-23T00:56:56.392Z,1031.99
2017-12-23T00:58:23.668Z,1031.94
2017-12-23T00:59:50.898Z,1031.91
2017-12-23T01:01:18.130Z,1031.86
2017-12-23T01:02:45.384Z,1031.85
2017-12-23T01:04:12.544Z,1031.89
2017-12-23T01:05:39.721Z,1031.92
2017-12-23T01:07:07.052Z,1031.94
2017-12-23T01:08:34.368Z,1031.95
2017-12-23T01:10:01.689Z,1031.85
2017-12-23T01:11:29.021Z,1031.81
2017-12-23T01:12:56.096Z,1031.78
2017-12-23T01:14:23.223Z,1031.81
2017-12-23T01:15:50.443Z,1031.82
2017-12-23T01:17:17.794Z,1031.78
2017-12-23T01:18:45.124Z,1031.75
2017-12-23T01:20:12.183Z,1031.71
2017-12-23T01:21:39.426Z,1031.63
2017-12-23T01:23:06.710Z,1031.60
2017-12-23T01:24:34.089Z,1031.59
2017-12-23T01:26:01.532Z,1031.56
2017-12-23T01:27:28.518Z,1031.59
2017-12-23T01:28:55.860Z,1031.56
2017-12-23T01:30:23.251Z,1031.53
2017-12-23T01:31:50.306Z,1031.58
2017-12-23T01:33:17.377Z,1031.57
2017-12-23T01:34:44.610Z,1031.60
2017-12-23T01:36:11.828Z,1031.61
2017-12-23T01:37:38.976Z,1031.54
2017-12-23T01:39:06.315Z,1031.49
2017-12-23T01:40:33.793Z,1031.42
2017-12-23T01:42:01.005Z,1031.39
2017-12-23T01:43:28.175Z,1031.34
2017-12-23T01:44:55.302Z,1031.26
2017-12-23T01:46:22.495Z,1031.17
2017-12-23T01:47:49.766Z,1031.14
2017-12-23T01:49:17.099Z,1031.14
2017-12-23T01:50:44.286Z,1031.10
2017-12-23T01:52:11.566Z,1031.05
2017-12-23T01:53:38.377Z,1030.95
2017-12-23T01:55:05.682Z,1030.94
2017-12-23T01:56:33.001Z,1030.93
2017-12-23T01:58:00.150Z,1030.99
2017-12-23T01:59:27.444Z,1030.93
2017-12-23T02:00:54.781Z,1030.93
2017-12-23T02:02:22.340Z,1030.85
2017-12-23T02:03:49.513Z,1030.81
2017-12-23T02:05:16.871Z,1030.75
2017-12-23T02:06:43.979Z,1030.73
2017-12-23T02:08:11.113Z,1030.64
2017-12-23T02:09:38.405Z,1030.60
2017-12-23T02:11:05.818Z,1030.62
2017-12-23T02:12:33.036Z,1030.57
2017-12-23T02:14:00.310Z,1030.51
2017-12-23T02:15:27.730Z,1030.45
2017-12-23T02:16:55.012Z,1030.45
2017-12-23T02:18:22.199Z,1030.46
2017-12-23T02:19:49.737Z,1030.42
2017-12-23T02:21:16.683Z,1030.46
2017-12-23T02:22:43.684Z,1030.45
2017-12-23T02:24:10.822Z,1030.38
2017-12-23T02:25:38.309Z,1030.32
2017-12-23T02:27:05.571Z,1030.26
2017-12-23T02:28:33.112Z,1030.22
2017-12-23T02:30:04.343Z,1030.12
2017-12-23T02:31:27.810Z,1030.07
2017-12-23T02:32:55.078Z,1029.95
2017-12-23T02:34:22.414Z,1029.88
2017-12-23T02:35:49.654Z,1029.83
2017-12-23T02:37:16.882Z,1029.85
2017-12-23T02:38:44.148Z,1029.86
2017-12-23T02:40:11.530Z,1029.85
2017-12-23T02:41:38.577Z,1029.79
2017-12-23T02:43:05.836Z,1029.72
2017-12-23T02:44:33.261Z,1029.69
2017-12-23T02:46:00.349Z,1029.64
2017-12-23T02:47:27.514Z,1029.68
2017-12-23T02:48:54.946Z,1029.68
2017-12-23T02:50:22.133Z,1029.67
2017-12-23T02:51:49.503Z,1029.62
2017-12-23T02:53:16.615Z,1029.54
2017-12-23T02:54:43.967Z,1029.50
2017-12-23T02:56:11.043Z,1029.39
2017-12-23T02:57:38.548Z,1029.30
2017-12-23T02:59:05.818Z,1029.26
2017-12-23T03:00:32.967Z,1029.26
2017-12-23T03:02:00.277Z,1029.22
2017-12-23T03:03:27.466Z,1029.23
2017-12-23T03:04:54.749Z,1029.19
2017-12-23T03:06:21.985Z,1029.16
2017-12-23T03:07:49.280Z,1029.12
2017-12-23T03:09:16.589Z,1029.12
2017-12-23T03:10:43.766Z,1029.07
2017-12-23T03:12:11.257Z,1029.05
2017-12-23T03:13:38.553Z,1029.12
2017-12-23T03:15:05.783Z,1029.08
2017-12-23T03:16:33.011Z,1029.07
2017-12-23T03:18:00.328Z,1029.09
2017-12-23T03:19:27.442Z,1029.03
2017-12-23T03:20:54.514Z,1029.05
2017-12-23T03:22:21.726Z,1029.05
2017-12-23T03:23:49.108Z,1029.04
2017-12-23T03:25:16.388Z,1028.98
2017-12-23T03:26:43.506Z,1028.99
2017-12-23T03:28:10.700Z,1028.99
2017-12-23T03:29:38.081Z,1029.02
2017-12-23T03:31:05.439Z,1029.03
2017-12-23T03:32:32.544Z,1029.02
2017-12-23T03:33:59.797Z,1028.98
2017-12-23T03:35:26.821Z,1028.89
2017-12-23T03:36:54.042Z,1028.88
2017-12-23T03:38:21.300Z,1028.86
2017-12-23T03:39:48.667Z,1028.86
2017-12-23T03:41:16.020Z,1028.88
2017-12-23T03:42:43.105Z,1028.90
2017-12-23T03:44:10.515Z,1028.84
2017-12-23T03:45:37.445Z,1028.85
2017-12-23T03:47:05.032Z,1028.91
2017-12-23T03:48:32.095Z,1028.93
2017-12-23T03:49:59.366Z,1028.90
2017-12-23T03:51:26.659Z,1028.90
2017-12-23T03:52:54.066Z,1028.88
2017-12-23T03:54:21.224Z,1028.84
2017-12-23T03:55:48.326Z,1028.77
2017-12-23T03:57:15.716Z,1028.68
2017-12-23T03:58:42.931Z,1028.61
2017-12-23T04:00:10.175Z,1028.60
2017-12-23T04:01:37.515Z,1028.64
2017-12-23T04:03:04.932Z,1028.65
2017-12-23T04:04:32.133Z,1028.70
2017-12-23T04:05:59.505Z,1028.68
2017-12-23T04:07:26.777Z,1028.67
2017-12-23T04:08:54.059Z,1028.62
2017-12-23T04:10:21.440Z,1028.60
2017-12-23T04:11:48.630Z,1028.61
2017-12-23T04:13:15.900Z,1028.62
2017-12-23T04:14:42.906Z,1028.61
2017-12-23T04:16:10.148Z,1028.59
2017-12-23T04:17:37.362Z,1028.52
2017-12-23T04:19:04.601Z,1028.51
2017-12-23T04:20:31.907Z,1028.53
2017-12-23T04:21:59.157Z,1028.54
2017-12-23T04:23:26.403Z,1028.55
2017-12-23T04:24:53.738Z,1028.54
2017-12-23T04:26:20.926Z,1028.49
2017-12-23T04:27:48.222Z,1028.51
2017-12-23T04:29:15.495Z,1028.52
2017-12-23T04:30:42.659Z,1028.43
2017-12-23T04:32:09.787Z,1028.48
2017-12-23T04:33:36.974Z,1028.48
2017-12-23T04:35:04.366Z,1028.47
2017-12-23T04:36:31.468Z,1028.53
2017-12-23T04:37:58.769Z,1028.56
2017-12-23T04:39:26.240Z,1028.53
2017-12-23T04:40:53.369Z,1028.52
2017-12-23T04:42:20.763Z,1028.51
2017-12-23T04:43:48.052Z,1028.48
2017-12-23T04:45:15.263Z,1028.54
2017-12-23T04:46:42.449Z,1028.52
2017-12-23T04:48:09.601Z,1028.46
2017-12-23T04:49:36.959Z,1028.39
2017-12-23T04:51:04.270Z,1028.43
2017-12-23T04:52:31.575Z,1028.39
2017-12-23T04:53:58.949Z,1028.45
2017-12-23T04:55:26.142Z,1028.37
2017-12-23T04:56:53.334Z,1028.34
2017-12-23T04:58:20.501Z,1028.42
2017-12-23T04:59:47.715Z,1028.38
2017-12-23T05:01:15.012Z,1028.34
2017-12-23T05:02:42.152Z,1028.26
2017-12-23T05:04:09.428Z,1028.30
2017-12-23T05:05:36.436Z,1028.26
2017-12-23T05:07:03.859Z,1028.30
2017-12-23T05:08:31.252Z,1028.22
2017-12-23T05:09:58.506Z,1028.20
2017-12-23T05:11:25.688Z,1028.10
2017-12-23T05:12:52.905Z,1028.08
2017-12-23T05:14:20.051Z,1028.10
2017-12-23T05:15:47.158Z,1028.07
2017-12-23T05:17:14.415Z,1028.08
2017-12-23T05:18:41.596Z,1028.08
2017-12-23T05:20:08.712Z,1028.09
2017-12-23T05:21:36.176Z,1028.02
2017-12-23T05:23:03.379Z,1028.01
2017-12-23T05:24:30.684Z,1028.03
2017-12-23T05:25:57.979Z,1027.97
2017-12-23T05:27:25.405Z,1027.93
2017-12-23T05:28:52.532Z,1027.89
2017-12-23T05:30:19.662Z,1027.81
2017-12-23T05:31:46.888Z,1027.81
2017-12-23T05:33:14.150Z,1027.81
2017-12-23T05:34:41.355Z,1027.74
2017-12-23T05:36:08.579Z,1027.70
2017-12-23T05:37:35.646Z,1027.78
2017-12-23T05:39:02.876Z,1027.76
2017-12-23T05:40:30.154Z,1027.69
2017-12-23T05:41:57.437Z,1027.71
2017-12-23T05:43:24.703Z,1027.71
2017-12-23T05:44:51.915Z,1027.67
2017-12-23T05:46:19.088Z,1027.65
2017-12-23T05:47:46.382Z,1027.64
2017-12-23T05:49:13.426Z,1027.63
2017-12-23T05:50:40.563Z,1027.68
2017-12-23T05:52:07.797Z,1027.66
2017-12-23T05:53:35.074Z,1027.67
2017-12-23T05:55:02.438Z,1027.61
2017-12-23T05:56:29.540Z,1027.61
2017-12-23T05:57:56.789Z,1027.58
2017-12-23T05:59:24.114Z,1027.50
2017-12-23T06:00:51.541Z,1027.44
2017-12-23T06:02:18.462Z,1027.40
2017-12-23T06:03:45.726Z,1027.32
2017-12-23T06:05:13.010Z,1027.37
2017-12-23T06:06:39.987Z,1027.36
2017-12-23T06:08:07.261Z,1027.39
2017-12-23T06:09:34.790Z,1027.36
2017-12-23T06:11:02.009Z,1027.38
2017-12-23T06:12:29.217Z,1027.40
2017-12-23T06:13:56.436Z,1027.35
2017-12-23T06:15:23.599Z,1027.25
2017-12-23T06:16:51.094Z,1027.26
2017-12-23T06:18:18.421Z,1027.26
2017-12-23T06:19:45.670Z,1027.29
2017-12-23T06:21:13.173Z,1027.28
2017-12-23T06:22:40.082Z,1027.23
2017-12-23T06:24:07.374Z,1027.22
2017-12-23T06:25:34.568Z,1027.13
2017-12-23T06:27:01.923Z,1027.08
2017-12-23T06:28:29.161Z,1027.07
2017-12-23T06:29:56.367Z,1027.09
2017-12-23T06:31:23.757Z,1027.04
2017-12-23T06:32:51.067Z,1027.05
2017-12-23T06:34:18.033Z,1027.06
2017-12-23T06:35:45.275Z,1027.04
2017-12-23T06:37:12.508Z,1026.98
2017-12-23T06:38:39.577Z,1026.93
2017-12-23T06:40:06.952Z,1026.89
2017-12-23T06:41:34.358Z,1026.81
2017-12-23T06:43:01.349Z,1026.84
2017-12-23T06:44:28.735Z,1026.84
2017-12-23T06:45:56.040Z,1026.79
2017-12-23T06:47:23.513Z,1026.71
2017-12-23T06:48:50.903Z,1026.72
2017-12-23T06:50:18.040Z,1026.72
2017-12-23T06:51:45.291Z,1026.74
2017-12-23T06:53:12.464Z,1026.73
2017-12-23T06:54:39.609Z,1026.78
2017-12-23T06:56:06.911Z,1026.76
2017-12-23T06:57:34.120Z,1026.75
2017-12-23T06:59:01.390Z,1026.76
2017-12-23T07:00:28.716Z,1026.76
2017-12-23T07:01:56.013Z,1026.69
2017-12-23T07:03:23.288Z,1026.64
2017-12-23T07:04:50.396Z,1026.65
2017-12-23T07:06:17.672Z,1026.59
2017-12-23T07:07:44.890Z,1026.58
2017-12-23T07:09:11.976Z,1026.55
2017-12-23T07:10:39.292Z,1026.59
2017-12-23T07:12:06.690Z,1026.58
2017-12-23T07:13:33.809Z,1026.56
2017-12-23T07:15:01.167Z,1026.51
2017-12-23T07:16:28.618Z,1026.54
2017-12-23T07:17:55.937Z,1026.51
2017-12-23T07:19:23.074Z,1026.47
2017-12-23T07:20:50.446Z,1026.49
2017-12-23T07:22:17.541Z,1026.56
2017-12-23T07:23:44.867Z,1026.56
2017-12-23T07:25:12.143Z,1026.51
2017-12-23T07:26:39.255Z,1026.44
2017-12-23T07:28:06.610Z,1026.45
2017-12-23T07:29:33.896Z,1026.47
2017-12-23T07:31:01.107Z,1026.46
2017-12-23T07:32:28.174Z,1026.47
2017-12-23T07:33:55.562Z,1026.49
2017-12-23T07:35:22.895Z,1026.51
2017-12-23T07:36:50.279Z,1026.49
2017-12-23T07:38:17.723Z,1026.47
2017-12-23T07:39:44.920Z,1026.41
2017-12-23T07:41:12.005Z,1026.47
2017-12-23T07:42:39.155Z,1026.44
2017-12-23T07:44:06.655Z,1026.43
2017-12-23T07:45:33.742Z,1026.39
2017-12-23T07:47:01.081Z,1026.38
2017-12-23T07:48:28.323Z,1026.44
2017-12-23T07:49:55.638Z,1026.39
2017-12-23T07:51:22.859Z,1026.34
2017-12-23T07:52:50.289Z,1026.32
2017-12-23T07:54:17.414Z,1026.28
2017-12-23T07:55:44.741Z,1026.26
2017-12-23T07:57:12.026Z,1026.20
2017-12-23T07:58:38.991Z,1026.13
2017-12-23T08:00:06.162Z,1026.09
2017-12-23T08:01:33.513Z,1026.07
2017-12-23T08:03:00.908Z,1026.05
2017-12-23T08:04:28.056Z,1026.12
2017-12-23T08:05:55.294Z,1026.11
2017-12-23T08:07:22.605Z,1026.05
2017-12-23T08:08:49.879Z,1026.11
2017-12-23T08:10:16.959Z,1026.11
2017-12-23T08:11:44.059Z,1026.08
2017-12-23T08:13:11.253Z,1026.00
2017-12-23T08:14:38.558Z,1026.03
2017-12-23T08:16:05.936Z,1026.06
2017-12-23T08:17:33.072Z,1026.10
2017-12-23T08:19:00.303Z,1026.12
2017-12-23T08:20:27.605Z,1026.06
2017-12-23T08:21:54.738Z,1026.12
2017-12-23T08:23:22.124Z,1026.17
2017-12-23T08:24:49.542Z,1026.16
2017-12-23T08:26:16.640Z,1026.11
2017-12-23T08:27:44.050Z,1026.11
2017-12-23T08:29:11.191Z,1026.13
2017-12-23T08:30:38.225Z,1026.16
2017-12-23T08:32:05.677Z,1026.12
2017-12-23T08:33:32.902Z,1026.06
2017-12-23T08:35:00.162Z,1025.96
2017-12-23T08:36:27.511Z,1025.90
2017-12-23T08:37:54.839Z,1025.89
2017-12-23T08:39:22.225Z,1025.91
2017-12-23T08:40:49.358Z,1025.97
2017-12-23T08:42:16.672Z,1026.07
2017-12-23T08:43:43.842Z,1026.01
2017-12-23T08:45:10.999Z,1026.03
2017-12-23T08:46:38.318Z,1026.04
2017-12-23T08:48:05.765Z,1025.98
2017-12-23T08:49:33.042Z,1026.01
2017-12-23T08:51:00.143Z,1025.99
2017-12-23T08:52:27.311Z,1026.01
2017-12-23T08:53:54.632Z,1026.07
2017-12-23T08:55:21.855Z,1026.10
2017-12-23T08:56:49.350Z,1026.04
2017-12-23T08:58:16.689Z,1026.01
2017-12-23T08:59:43.961Z,1026.00
2017-12-23T09:01:10.963Z,1026.00
2017-12-23T09:02:38.339Z,1025.95
2017-12-23T09:04:05.579Z,1025.96
2017-12-23T09:05:32.676Z,1025.99
2017-12-23T09:06:59.998Z,1025.99
2017-12-23T09:08:27.174Z,1025.94
2017-12-23T09:09:54.519Z,1025.89
2017-12-23T09:11:21.615Z,1025.84
2017-12-23T09:12:49.074Z,1025.82
2017-12-23T09:14:16.357Z,1025.82
2017-12-23T09:15:43.593Z,1025.80
2017-12-23T09:17:10.838Z,1025.82
2017-12-23T09:18:38.173Z,1025.81
2017-12-23T09:20:05.445Z,1025.78
2017-12-23T09:21:32.643Z,1025.79
2017-12-23T09:22:59.822Z,1025.80
2017-12-23T09:24:27.094Z,1025.80
2017-12-23T09:25:54.359Z,1025.81
2017-12-23T09:27:21.496Z,1025.78
2017-12-23T09:28:48.881Z,1025.79
2017-12-23T09:30:16.154Z,1025.76
2017-12-23T09:31:43.241Z,1025.73
2017-12-23T09:33:10.491Z,1025.74
2017-12-23T09:34:37.700Z,1025.68
2017-12-23T09:36:05.089Z,1025.67
2017-12-23T09:37:32.400Z,1025.62
2017-12-23T09:38:59.448Z,1025.55
2017-12-23T09:40:26.826Z,1025.53
2017-12-23T09:41:54.109Z,1025.46
2017-12-23T09:43:21.295Z,1025.42
2017-12-23T09:44:48.521Z,1025.40
2017-12-23T09:46:16.004Z,1025.40
2017-12-23T09:47:43.236Z,1025.43
2017-12-23T09:49:10.534Z,1025.45
2017-12-23T09:50:37.652Z,1025.42
2017-12-23T09:52:05.072Z,1025.41
2017-12-23T09:53:32.465Z,1025.33
2017-12-23T09:54:59.786Z,1025.33
2017-12-23T09:56:27.077Z,1025.32
2017-12-23T09:57:54.492Z,1025.39
2017-12-23T09:59:21.611Z,1025.42
2017-12-23T10:00:48.781Z,1025.42
2017-12-23T10:02:16.039Z,1025.37
2017-12-23T10:03:43.273Z,1025.26
2017-12-23T10:05:10.368Z,1025.28
2017-12-23T10:06:37.754Z,1025.17
2017-12-23T10:08:05.089Z,1025.08
2017-12-23T10:09:32.258Z,1024.99
2017-12-23T10:10:59.615Z,1024.89
2017-12-23T10:12:26.707Z,1024.92
2017-12-23T10:13:54.068Z,1024.86
2017-12-23T10:15:21.375Z,1024.82
2017-12-23T10:16:48.533Z,1024.84
2017-12-23T10:18:15.895Z,1024.66
2017-12-23T10:19:43.182Z,1024.69
2017-12-23T10:21:10.341Z,1024.57
2017-12-23T10:22:37.785Z,1024.51
2017-12-23T10:24:05.077Z,1024.40
2017-12-23T10:25:32.438Z,1024.39
2017-12-23T10:26:59.886Z,1024.37
2017-12-23T10:28:27.165Z,1024.36
2017-12-23T10:29:54.294Z,1024.34
2017-12-23T10:31:21.769Z,1024.29
2017-12-23T10:32:49.045Z,1024.26
2017-12-23T10:34:16.217Z,1024.22
2017-12-23T10:35:43.599Z,1024.26
2017-12-23T10:37:10.930Z,1024.23
2017-12-23T10:38:38.211Z,1024.18
2017-12-23T10:40:05.538Z,1024.16
2017-12-23T10:41:32.764Z,1024.12
2017-12-23T10:42:59.893Z,1024.12
2017-12-23T10:44:27.358Z,1024.10
2017-12-23T10:45:54.591Z,1024.06
2017-12-23T10:47:21.912Z,1024.18
2017-12-23T10:48:49.157Z,1024.12
2017-12-23T10:50:16.302Z,1024.10
2017-12-23T10:51:43.681Z,1024.04
2017-12-23T10:53:10.831Z,1023.99
2017-12-23T10:54:38.210Z,1023.98
2017-12-23T10:56:05.494Z,1024.01
2017-12-23T10:57:32.774Z,1024.01
2017-12-23T10:59:00.070Z,1024.01
2017-12-23T11:00:27.323Z,1023.97
2017-12-23T11:01:54.548Z,1023.97
2017-12-23T11:03:21.916Z,1023.97
2017-12-23T11:04:49.014Z,1023.95
2017-12-23T11:06:16.336Z,1023.96
2017-12-23T11:07:43.489Z,1023.94
2017-12-23T11:09:10.742Z,1023.90
2017-12-23T11:10:38.087Z,1023.86
2017-12-23T11:12:05.445Z,1023.80
2017-12-23T11:13:32.899Z,1023.71
2017-12-23T11:15:00.310Z,1023.74
2017-12-23T11:16:27.727Z,1023.71
2017-12-23T11:17:54.616Z,1023.65
2017-12-23T11:19:22.120Z,1023.68
2017-12-23T11:20:49.566Z,1023.59
2017-12-23T11:22:16.899Z,1023.59
2017-12-23T11:23:44.241Z,1023.58
2017-12-23T11:25:11.665Z,1023.62
2017-12-23T11:26:38.715Z,1023.64
2017-12-23T11:28:06.066Z,1023.58
2017-12-23T11:29:33.495Z,1023.54
2017-12-23T11:31:00.968Z,1023.52
2017-12-23T11:32:28.110Z,1023.53
2017-12-23T11:33:55.609Z,1023.56
2017-12-23T11:35:22.982Z,1023.52
2017-12-23T11:36:50.227Z,1023.52
2017-12-23T11:38:17.389Z,1023.52
2017-12-23T11:39:44.790Z,1023.44
2017-12-23T11:41:12.038Z,1023.42
2017-12-23T11:42:39.250Z,1023.39
2017-12-23T11:44:06.641Z,1023.44
2017-12-23T11:45:34.026Z,1023.45
2017-12-23T11:47:01.405Z,1023.45
2017-12-23T11:48:28.709Z,1023.38
2017-12-23T11:49:55.851Z,1023.33
2017-12-23T11:51:22.937Z,1023.29
2017-12-23T11:52:50.146Z,1023.30
2017-12-23T11:54:17.615Z,1023.38
2017-12-23T11:55:44.988Z,1023.32
2017-12-23T11:57:12.260Z,1023.38
2017-12-23T11:58:39.450Z,1023.40
2017-12-23T12:00:06.789Z,1023.32
2017-12-23T12:01:34.086Z,1023.25
2017-12-23T12:03:01.472Z,1023.23
2017-12-23T12:04:28.692Z,1023.23
2017-12-23T12:05:56.114Z,1023.19
2017-12-23T12:07:23.456Z,1023.18
2017-12-23T12:08:50.903Z,1023.15
2017-12-23T12:10:18.044Z,1023.16
2017-12-23T12:11:45.411Z,1023.18
2017-12-23T12:13:12.783Z,1023.19
2017-12-23T12:14:40.135Z,1023.19
2017-12-23T12:16:07.136Z,1023.14
2017-12-23T12:17:34.745Z,1023.17
2017-12-23T12:19:02.015Z,1023.17
2017-12-23T12:20:29.507Z,1023.06
2017-12-23T12:21:56.631Z,1023.07
2017-12-23T12:23:23.874Z,1023.07
2017-12-23T12:24:51.173Z,1023.07
2017-12-23T12:26:18.336Z,1023.08
2017-12-23T12:27:42.591Z,1023.01
2017-12-23T12:29:12.928Z,1022.98
2017-12-23T12:30:39.958Z,1022.92
2017-12-23T12:32:07.393Z,1022.88
2017-12-23T12:33:34.924Z,1022.80
2017-12-23T12:35:01.978Z,1022.77
2017-12-23T12:36:29.281Z,1022.77
2017-12-23T12:37:56.701Z,1022.74
2017-12-23T12:39:24.238Z,1022.75
2017-12-23T12:40:51.388Z,1022.71
2017-12-23T12:42:18.837Z,1022.74
2017-12-23T12:43:45.703Z,1022.77
2017-12-23T12:45:12.826Z,1022.75
2017-12-23T12:46:39.971Z,1022.70
2017-12-23T12:48:07.356Z,1022.63
2017-12-23T12:49:34.427Z,1022.59
2017-12-23T12:51:01.910Z,1022.58
2017-12-23T12:52:29.355Z,1022.59
2017-12-23T12:53:56.224Z,1022.53
2017-12-23T12:55:23.519Z,1022.50
2017-12-23T12:56:51.023Z,1022.50
2017-12-23T12:58:18.330Z,1022.45
2017-12-23T12:59:45.525Z,1022.51
2017-12-23T13:01:12.600Z,1022.49
2017-12-23T13:02:39.495Z,1022.50
2017-12-23T13:04:06.642Z,1022.46
2017-12-23T13:05:34.128Z,1022.49
2017-12-23T13:07:01.052Z,1022.42
2017-12-23T13:08:28.262Z,1022.46
2017-12-23T13:09:55.586Z,1022.48
2017-12-23T13:11:22.873Z,1022.49
2017-12-23T13:12:50.021Z,1022.50
2017-12-23T13:14:17.271Z,1022.49
2017-12-23T13:15:44.805Z,1022.52
2017-12-23T13:17:11.942Z,1022.49
2017-12-23T13:18:39.034Z,1022.49
2017-12-23T13:20:06.307Z,1022.56
2017-12-23T13:21:33.639Z,1022.50
2017-12-23T13:23:00.880Z,1022.47
2017-12-23T13:24:28.185Z,1022.46
2017-12-23T13:25:55.461Z,1022.42
2017-12-23T13:27:22.779Z,1022.42
2017-12-23T13:28:49.975Z,1022.36
2017-12-23T13:30:17.194Z,1022.39
2017-12-23T13:31:44.496Z,1022.39
2017-12-23T13:33:11.649Z,1022.41
2017-12-23T13:34:38.689Z,1022.36
2017-12-23T13:36:05.939Z,1022.33
2017-12-23T13:37:33.466Z,1022.33
2017-12-23T13:39:00.717Z,1022.33
2017-12-23T13:40:28.207Z,1022.34
2017-12-23T13:41:55.525Z,1022.33
2017-12-23T13:43:22.957Z,1022.35
2017-12-23T13:44:50.264Z,1022.35
2017-12-23T13:46:17.563Z,1022.35
2017-12-23T13:47:44.989Z,1022.38
2017-12-23T13:49:12.186Z,1022.37
2017-12-23T13:50:39.346Z,1022.35
2017-12-23T13:52:06.747Z,1022.41
2017-12-23T13:53:34.085Z,1022.35
2017-12-23T13:55:01.369Z,1022.31
2017-12-23T13:56:28.775Z,1022.37
2017-12-23T13:57:55.945Z,1022.32
2017-12-23T13:59:23.310Z,1022.28
2017-12-23T14:00:50.647Z,1022.30
2017-12-23T14:02:18.022Z,1022.27
2017-12-23T14:03:45.434Z,1022.27
2017-12-23T14:05:12.629Z,1022.22
2017-12-23T14:06:39.711Z,1022.25
2017-12-23T14:08:06.824Z,1022.31
2017-12-23T14:09:34.241Z,1022.23
2017-12-23T14:11:01.694Z,1022.26
2017-12-23T14:12:28.891Z,1022.27
2017-12-23T14:13:56.027Z,1022.40
2017-12-23T14:15:23.289Z,1022.40
2017-12-23T14:16:50.720Z,1022.40
2017-12-23T14:18:18.173Z,1022.39
2017-12-23T14:19:45.550Z,1022.40
2017-12-23T14:21:12.818Z,1022.40
2017-12-23T14:22:40.131Z,1022.36
2017-12-23T14:24:07.571Z,1022.39
2017-12-23T14:25:34.946Z,1022.32
2017-12-23T14:27:02.337Z,1022.34
2017-12-23T14:28:29.651Z,1022.31
2017-12-23T14:29:56.860Z,1022.33
2017-12-23T14:31:24.157Z,1022.25
2017-12-23T14:32:51.504Z,1022.21
2017-12-23T14:34:18.733Z,1022.22
2017-12-23T14:35:45.868Z,1022.16
2017-12-23T14:37:13.061Z,1022.10
2017-12-23T14:38:40.285Z,1022.10
2017-12-23T14:40:07.559Z,1022.05
2017-12-23T14:41:34.713Z,1022.03
2017-12-23T14:43:02.004Z,1022.05
2017-12-23T14:44:29.381Z,1021.94
2017-12-23T14:45:56.712Z,1021.96
2017-12-23T14:47:24.100Z,1021.87
2017-12-23T14:48:51.267Z,1021.79
2017-12-23T14:50:18.527Z,1021.78
2017-12-23T14:51:45.700Z,1021.77
2017-12-23T14:53:12.963Z,1021.69
2017-12-23T14:54:40.132Z,1021.65
2017-12-23T14:56:07.358Z,1021.67
2017-12-23T14:57:34.810Z,1021.67
2017-12-23T14:59:02.068Z,1021.67
2017-12-23T15:00:29.402Z,1021.67
2017-12-23T15:01:56.819Z,1021.65
2017-12-23T15:03:24.194Z,1021.69
2017-12-23T15:04:51.447Z,1021.61
2017-12-23T15:06:18.868Z,1021.68
2017-12-23T15:07:46.110Z,1021.62
2017-12-23T15:09:13.456Z,1021.65
2017-12-23T15:10:40.590Z,1021.68
2017-12-23T15:12:07.855Z,1021.67
2017-12-23T15:13:35.208Z,1021.65
2017-12-23T15:15:02.394Z,1021.63
2017-12-23T15:16:29.792Z,1021.64
2017-12-23T15:17:57.153Z,1021.57
2017-12-23T15:19:24.512Z,1021.67
2017-12-23T15:20:51.843Z,1021.61
2017-12-23T15:22:19.249Z,1021.58
2017-12-23T15:23:46.568Z,1021.57
2017-12-23T15:25:14.209Z,1021.58
2017-12-23T15:26:41.465Z,1021.56
2017-12-23T15:28:08.843Z,1021.58
2017-12-23T15:29:36.292Z,1021.58
2017-12-23T15:31:03.745Z,1021.57
2017-12-23T15:32:30.873Z,1021.60
2017-12-23T15:33:58.323Z,1021.54
2017-12-23T15:35:25.433Z,1021.60
2017-12-23T15:36:52.770Z,1021.62
2017-12-23T15:38:20.054Z,1021.64
2017-12-23T15:39:47.383Z,1021.62
2017-12-23T15:41:14.540Z,1021.60
2017-12-23T15:42:41.772Z,1021.62
2017-12-23T15:44:08.844Z,1021.58
2017-12-23T15:45:36.026Z,1021.59
2017-12-23T15:47:03.287Z,1021.58
2017-12-23T15:48:30.719Z,1021.56
2017-12-23T15:49:58.078Z,1021.58
2017-12-23T15:51:25.279Z,1021.58
2017-12-23T15:52:52.365Z,1021.60
2017-12-23T15:54:19.747Z,1021.60
2017-12-23T15:55:47.124Z,1021.60
2017-12-23T15:57:14.451Z,1021.68
2017-12-23T15:58:41.713Z,1021.58
2017-12-23T16:00:08.986Z,1021.66
2017-12-23T16:01:36.144Z,1021.66
2017-12-23T16:03:03.344Z,1021.67
2017-12-23T16:04:30.754Z,1021.74
2017-12-23T16:05:58.149Z,1021.75
2017-12-23T16:07:25.503Z,1021.77
2017-12-23T16:08:52.775Z,1021.75
2017-12-23T16:10:20.221Z,1021.74
2017-12-23T16:11:47.442Z,1021.81
2017-12-23T16:13:14.688Z,1021.77
2017-12-23T16:14:41.936Z,1021.71
2017-12-23T16:16:09.126Z,1021.81
2017-12-23T16:17:36.355Z,1021.81
2017-12-23T16:19:03.921Z,1021.71
2017-12-23T16:20:31.255Z,1021.68
2017-12-23T16:21:58.531Z,1021.68
2017-12-23T16:23:25.823Z,1021.72
2017-12-23T16:24:53.187Z,1021.63
2017-12-23T16:26:20.469Z,1021.60
2017-12-23T16:27:47.638Z,1021.60
2017-12-23T16:29:14.989Z,1021.53
2017-12-23T16:30:42.344Z,1021.55
2017-12-23T16:32:09.648Z,1021.56
2017-12-23T16:33:36.952Z,1021.56
2017-12-23T16:35:04.449Z,1021.54
2017-12-23T16:36:31.751Z,1021.47
2017-12-23T16:37:59.076Z,1021.47
2017-12-23T16:39:26.026Z,1021.41
2017-12-23T16:40:53.433Z,1021.36
2017-12-23T16:42:20.509Z,1021.44
2017-12-23T16:43:47.914Z,1021.45
2017-12-23T16:45:15.244Z,1021.45
2017-12-23T16:46:42.642Z,1021.43
2017-12-23T16:48:09.988Z,1021.46
2017-12-23T16:49:37.079Z,1021.47
2017-12-23T16:51:04.467Z,1021.50
2017-12-23T16:52:31.790Z,1021.49
2017-12-23T16:53:58.935Z,1021.49
2017-12-23T16:55:26.313Z,1021.49
2017-12-23T16:56:53.682Z,1021.48
2017-12-23T16:58:21.040Z,1021.43
2017-12-23T16:59:48.489Z,1021.50
2017-12-23T17:01:15.720Z,1021.47
2017-12-23T17:02:43.133Z,1021.47
2017-12-23T17:04:10.346Z,1021.41
2017-12-23T17:05:37.647Z,1021.42
2017-12-23T17:07:05.013Z,1021.36
2017-12-23T17:08:32.287Z,1021.35
2017-12-23T17:09:59.742Z,1021.29
2017-12-23T17:11:27.039Z,1021.18
2017-12-23T17:12:54.441Z,1021.16
2017-12-23T17:14:21.705Z,1021.18
2017-12-23T17:15:49.084Z,1021.17
2017-12-23T17:17:16.237Z,1021.18
2017-12-23T17:18:43.330Z,1021.14
2017-12-23T17:20:10.626Z,1021.10
2017-12-23T17:21:38.004Z,1021.10
2017-12-23T17:23:05.256Z,1021.06
2017-12-23T17:24:32.381Z,1021.14
2017-12-23T17:25:59.766Z,1021.09
2017-12-23T17:27:27.116Z,1021.10
2017-12-23T17:28:54.518Z,1021.09
2017-12-23T17:30:21.854Z,1021.09
2017-12-23T17:31:49.197Z,1021.07
2017-12-23T17:33:16.570Z,1020.94
2017-12-23T17:34:43.745Z,1020.91